FCBB/BZV METAR and TAF weather

Enter ICAO airport designator
Station Type Date Time Source
FCBB METAR 2022/12/04 05:00 UTC NOAA

FCBB 040500Z VRB02KT 9999 FEW010 BKN016 22/21 Q1012 NOSIG


Station Type Date Time Source
FCBB Decoded METAR 2022/12/04 05:00 UTC NOAA

Brazzaville / Maya-Maya, Congo, Republic of the (FCBB) 04-15S 015-15E 316M
Dec 04, 2022 - 12:00 AM EST / 2022.12.04 0500 UTC
Wind: Variable at 2 MPH (2 KT):0
Visibility: greater than 7 mile(s):0
Sky conditions: mostly cloudy
Temperature: 71 F (22 C)
Dew Point: 69 F (21 C)
Relative Humidity: 94%
Pressure (altimeter): 29.88 in. Hg (1012 hPa)
ob: FCBB 040500Z VRB02KT 9999 FEW010 BKN016 22/21 Q1012 NOSIG
cycle: 5

Station Type Date Time Source
FCBB TAF 2022/12/04 06:18 UTC NOAA

TAF TAF FCBB 040500Z 0406/0512 26004KT 9000 BKN016
BECMG 0409/0411 SCT020 FEW030CB PROB30 0412/0415 -TSRA
BECMG 0417/0419 FEW018

Example: see airport list